createdAt,value
2022-12-04T00:01:07.584Z,5.63
2022-12-04T00:03:34.832Z,6.60
2022-12-04T00:06:07.389Z,5.60
2022-12-04T00:08:34.239Z,6.68
2022-12-04T00:11:01.504Z,5.15
2022-12-04T00:13:28.042Z,5.93
2022-12-04T00:15:54.705Z,6.00
2022-12-04T00:18:21.436Z,5.65
2022-12-04T00:20:48.565Z,5.88
2022-12-04T00:23:15.210Z,5.88
2022-12-04T00:25:41.760Z,6.63
2022-12-04T00:28:08.943Z,5.55
2022-12-04T00:30:35.629Z,6.07
2022-12-04T00:33:02.157Z,5.43
2022-12-04T00:35:28.704Z,6.28
2022-12-04T00:37:55.259Z,6.78
2022-12-04T00:40:21.788Z,5.93
2022-12-04T00:42:48.357Z,6.05
2022-12-04T00:45:15.053Z,5.63
2022-12-04T00:47:41.607Z,5.88
2022-12-04T00:50:09.079Z,6.38
2022-12-04T00:52:35.593Z,6.30
2022-12-04T00:55:02.114Z,6.30
2022-12-04T00:57:28.761Z,6.60
2022-12-04T00:59:55.616Z,6.82
2022-12-04T01:02:22.791Z,6.25
2022-12-04T01:04:49.409Z,6.88
2022-12-04T01:07:16.035Z,7.70
2022-12-04T01:09:42.637Z,6.68
2022-12-04T01:12:09.213Z,6.82
2022-12-04T01:14:35.920Z,6.38
2022-12-04T01:17:02.511Z,7.18
2022-12-04T01:19:29.151Z,7.70
2022-12-04T01:21:55.884Z,7.07
2022-12-04T01:24:22.424Z,8.45
2022-12-04T01:26:48.937Z,7.68
2022-12-04T01:29:15.478Z,7.40
2022-12-04T01:31:42.094Z,6.85
2022-12-04T01:34:08.675Z,8.15
2022-12-04T01:36:35.164Z,7.78
2022-12-04T01:39:01.727Z,8.00
2022-12-04T01:41:30.903Z,7.63
2022-12-04T01:44:15.669Z,7.10
2022-12-04T01:46:44.858Z,7.00
2022-12-04T01:49:17.346Z,7.82
2022-12-04T01:51:49.106Z,7.53
2022-12-04T01:56:59.101Z,6.25
2022-12-04T01:59:29.468Z,8.20
2022-12-04T02:02:14.969Z,7.15
2022-12-04T02:04:42.766Z,8.48
2022-12-04T02:07:09.756Z,8.18
2022-12-04T02:09:37.492Z,8.10
2022-12-04T02:12:45.745Z,8.48
2022-12-04T02:15:23.579Z,8.32
2022-12-04T02:18:18.004Z,8.32
2022-12-04T02:20:59.193Z,8.40
2022-12-04T02:23:50.036Z,9.38
2022-12-04T02:26:22.581Z,9.23
2022-12-04T02:29:27.208Z,9.52
2022-12-04T02:32:26.728Z,9.73
2022-12-04T02:35:09.718Z,9.23
2022-12-04T02:37:42.116Z,10.40
2022-12-04T02:40:20.011Z,9.48
2022-12-04T02:43:16.428Z,10.02
2022-12-04T02:45:53.364Z,10.85
2022-12-04T02:48:21.917Z,10.45
2022-12-04T02:50:53.261Z,11.25
2022-12-04T02:53:26.904Z,10.57
2022-12-04T02:55:58.538Z,11.18
2022-12-04T02:58:30.787Z,11.32
2022-12-04T03:01:00.392Z,10.88
2022-12-04T03:03:30.369Z,11.80
2022-12-04T03:06:05.609Z,12.43
2022-12-04T03:08:39.449Z,11.90
2022-12-04T03:11:06.322Z,11.43
2022-12-04T03:13:48.907Z,11.15
2022-12-04T03:16:53.927Z,11.40
2022-12-04T03:19:24.885Z,11.43
2022-12-04T03:21:56.313Z,12.10
2022-12-04T03:24:40.282Z,11.00
2022-12-04T03:27:12.705Z,11.25
2022-12-04T03:29:41.759Z,12.38
2022-12-04T03:32:18.937Z,11.77
2022-12-04T03:34:57.767Z,11.73
2022-12-04T03:37:34.831Z,11.35
2022-12-04T03:40:44.899Z,11.73
2022-12-04T03:43:26.492Z,11.77
2022-12-04T03:46:14.581Z,12.73
2022-12-04T03:48:46.807Z,11.40
2022-12-04T03:51:34.174Z,11.07
2022-12-04T03:54:14.281Z,11.63
2022-12-04T03:56:47.263Z,11.27
2022-12-04T03:59:22.645Z,12.48
2022-12-04T04:01:51.495Z,13.30
2022-12-04T04:04:28.065Z,12.25
2022-12-04T04:06:59.247Z,12.80
2022-12-04T04:09:30.397Z,8.80
2022-12-04T04:12:06.787Z,14.38
2022-12-04T04:14:48.057Z,12.70
2022-12-04T04:17:18.290Z,11.63
2022-12-04T04:19:50.905Z,13.75
2022-12-04T04:22:19.848Z,12.40
2022-12-04T04:24:52.109Z,13.57
2022-12-04T04:27:18.692Z,13.15
2022-12-04T04:29:52.004Z,12.93
2022-12-04T04:32:25.684Z,12.55
2022-12-04T04:35:13.726Z,13.90
2022-12-04T04:37:53.955Z,12.30
2022-12-04T04:40:54.887Z,12.38
2022-12-04T04:43:30.368Z,13.93
2022-12-04T04:46:00.216Z,14.20
2022-12-04T04:48:32.986Z,14.52
2022-12-04T04:51:01.603Z,13.70
2022-12-04T04:53:38.582Z,13.85
2022-12-04T04:56:06.827Z,12.20
2022-12-04T04:58:33.659Z,12.98
2022-12-04T05:01:07.424Z,13.05
2022-12-04T05:03:34.662Z,14.20
2022-12-04T05:06:01.254Z,14.13
2022-12-04T05:08:27.820Z,13.10
2022-12-04T05:10:54.530Z,14.00
2022-12-04T05:13:21.675Z,14.63
2022-12-04T05:16:01.683Z,14.98
2022-12-04T05:18:28.873Z,13.68
2022-12-04T05:20:55.663Z,12.68
2022-12-04T05:23:22.272Z,13.80
2022-12-04T05:25:48.839Z,13.38
2022-12-04T05:28:15.740Z,12.57
2022-12-04T05:30:42.768Z,14.23
2022-12-04T05:33:10.542Z,13.10
2022-12-04T05:35:37.058Z,13.00
2022-12-04T05:38:03.822Z,12.90
2022-12-04T05:40:30.308Z,12.40
2022-12-04T05:42:57.289Z,13.68
2022-12-04T05:45:23.782Z,14.25
2022-12-04T05:47:50.306Z,14.35
2022-12-04T05:50:17.024Z,12.30
2022-12-04T05:52:43.735Z,12.13
2022-12-04T05:55:10.226Z,12.50
2022-12-04T05:57:37.007Z,12.30
2022-12-04T06:00:04.999Z,11.13
2022-12-04T06:02:37.949Z,12.38
2022-12-04T06:05:04.969Z,12.25
2022-12-04T06:07:31.648Z,12.10
2022-12-04T06:09:58.560Z,10.70
2022-12-04T06:12:25.180Z,12.02
2022-12-04T06:14:51.721Z,10.80
2022-12-04T06:17:18.241Z,11.13
2022-12-04T06:19:44.813Z,9.88
2022-12-04T06:22:11.342Z,12.05
2022-12-04T06:24:39.491Z,10.98
2022-12-04T06:29:53.294Z,11.05
2022-12-04T06:32:22.015Z,11.80
2022-12-04T06:34:53.683Z,11.30
2022-12-04T06:37:22.848Z,10.52
2022-12-04T06:39:49.584Z,10.77
2022-12-04T06:42:16.379Z,11.25
2022-12-04T06:44:42.958Z,10.43
2022-12-04T06:47:09.730Z,11.48
2022-12-04T06:49:36.247Z,11.52
2022-12-04T06:52:02.884Z,10.50
2022-12-04T06:54:29.386Z,10.80
2022-12-04T06:56:55.911Z,10.43
2022-12-04T06:59:22.651Z,9.88
2022-12-04T07:01:49.242Z,12.43
2022-12-04T07:04:15.787Z,11.07
2022-12-04T07:06:42.735Z,10.38
2022-12-04T07:09:11.709Z,10.10
2022-12-04T07:11:40.228Z,10.85
2022-12-04T07:14:07.383Z,11.13
2022-12-04T07:16:38.642Z,11.50
2022-12-04T07:19:07.311Z,11.70
2022-12-04T07:21:34.124Z,11.18
2022-12-04T07:24:01.701Z,11.35
2022-12-04T07:26:29.969Z,12.18
2022-12-04T07:28:57.432Z,11.45
2022-12-04T07:31:25.393Z,11.90
2022-12-04T07:33:52.423Z,10.88
2022-12-04T07:36:20.968Z,11.82
2022-12-04T07:38:47.936Z,11.63
2022-12-04T07:41:14.885Z,12.13
2022-12-04T07:43:42.285Z,11.38
2022-12-04T07:46:12.834Z,13.68
2022-12-04T07:48:40.146Z,13.15
2022-12-04T07:51:16.180Z,12.88
2022-12-04T07:53:43.854Z,13.05
2022-12-04T07:56:11.676Z,13.40
2022-12-04T07:58:38.800Z,13.82
2022-12-04T08:01:06.378Z,14.48
2022-12-04T08:03:33.447Z,13.80
2022-12-04T08:06:05.038Z,13.88
2022-12-04T08:08:32.269Z,15.82
2022-12-04T08:10:59.329Z,14.70
2022-12-04T08:13:26.128Z,14.43
2022-12-04T08:15:53.006Z,15.48
2022-12-04T08:18:19.600Z,14.77
2022-12-04T08:20:46.274Z,16.08
2022-12-04T08:23:12.823Z,15.70
2022-12-04T08:25:40.735Z,16.15
2022-12-04T08:28:08.348Z,15.40
2022-12-04T08:30:35.773Z,17.10
2022-12-04T08:33:02.761Z,14.85
2022-12-04T08:35:29.330Z,16.70
2022-12-04T08:37:55.902Z,17.40
2022-12-04T08:40:22.451Z,17.02
2022-12-04T08:42:48.983Z,18.17
2022-12-04T08:45:15.544Z,17.02
2022-12-04T08:47:42.264Z,17.52
2022-12-04T08:50:09.129Z,16.77
2022-12-04T08:52:35.738Z,18.77
2022-12-04T08:55:02.290Z,19.25
2022-12-04T08:57:28.967Z,18.48
2022-12-04T08:59:55.823Z,19.40
2022-12-04T09:02:22.537Z,19.27
2022-12-04T09:04:49.087Z,19.00
2022-12-04T09:07:15.748Z,18.80
2022-12-04T09:09:48.040Z,20.20
2022-12-04T09:12:15.296Z,20.75
2022-12-04T09:14:44.791Z,20.08
2022-12-04T09:17:13.684Z,21.50
2022-12-04T09:19:40.969Z,21.02
2022-12-04T09:22:07.554Z,20.48
2022-12-04T09:24:34.285Z,20.65
2022-12-04T09:27:01.895Z,20.27
2022-12-04T09:29:28.518Z,20.25
2022-12-04T09:31:55.127Z,19.63
2022-12-04T09:34:21.687Z,19.95
2022-12-04T09:36:48.297Z,19.42
2022-12-04T09:39:14.887Z,19.33
2022-12-04T09:42:05.114Z,19.40
2022-12-04T09:44:31.733Z,19.10
2022-12-04T09:47:00.649Z,20.45
2022-12-04T09:49:42.127Z,19.85
2022-12-04T09:52:38.104Z,20.90
2022-12-04T09:55:06.475Z,19.77
2022-12-04T09:57:40.614Z,20.55
2022-12-04T10:00:12.876Z,20.80
2022-12-04T10:02:42.107Z,21.38
2022-12-04T10:05:17.492Z,21.50
2022-12-04T10:07:52.159Z,20.67
2022-12-04T10:10:41.391Z,21.02
2022-12-04T10:13:29.243Z,20.60
2022-12-04T10:16:07.889Z,21.15
2022-12-04T10:19:12.718Z,20.50
2022-12-04T10:22:20.686Z,23.08
2022-12-04T10:24:51.599Z,21.17
2022-12-04T10:27:28.829Z,21.30
2022-12-04T10:30:14.351Z,21.17
2022-12-04T10:32:44.545Z,19.80
2022-12-04T10:35:22.988Z,20.08
2022-12-04T10:37:55.857Z,21.98
2022-12-04T10:40:28.177Z,20.92
2022-12-04T10:43:22.216Z,20.42
2022-12-04T10:45:48.761Z,21.92
2022-12-04T10:48:35.086Z,21.98
2022-12-04T10:51:01.707Z,20.27
2022-12-04T10:53:36.993Z,20.15
2022-12-04T10:56:25.089Z,21.55
2022-12-04T10:59:21.377Z,21.50
2022-12-04T11:01:49.131Z,21.05
2022-12-04T11:04:23.332Z,20.63
2022-12-04T11:06:49.860Z,18.73
2022-12-04T11:09:25.522Z,20.50
2022-12-04T11:11:52.296Z,22.20
2022-12-04T11:14:22.729Z,20.15
2022-12-04T11:17:00.194Z,21.17
2022-12-04T11:19:29.353Z,19.17
2022-12-04T11:22:00.218Z,19.58
2022-12-04T11:24:32.420Z,19.33
2022-12-04T11:26:59.558Z,20.65
2022-12-04T11:29:33.187Z,19.42
2022-12-04T11:32:07.230Z,18.48
2022-12-04T11:34:40.958Z,19.15
2022-12-04T11:37:21.000Z,18.67
2022-12-04T11:39:48.208Z,18.95
2022-12-04T11:42:23.187Z,20.10
2022-12-04T11:45:13.266Z,19.40
2022-12-04T11:47:39.807Z,19.58
2022-12-04T11:50:22.714Z,20.67
2022-12-04T11:53:04.142Z,20.60
2022-12-04T11:55:43.080Z,18.73
2022-12-04T11:58:34.582Z,19.48
2022-12-04T12:01:19.924Z,22.90
2022-12-04T12:04:40.744Z,26.92
2022-12-04T12:07:35.356Z,105.65
2022-12-04T12:10:11.171Z,99.65
2022-12-04T12:13:11.194Z,30.67
2022-12-04T12:16:01.871Z,33.63
2022-12-04T12:18:38.619Z,26.95
2022-12-04T12:21:27.668Z,58.08
2022-12-04T12:24:11.563Z,28.83
2022-12-04T12:26:45.770Z,29.95
2022-12-04T12:29:12.281Z,25.73
2022-12-04T12:31:58.242Z,22.02
2022-12-04T12:34:27.982Z,23.83
2022-12-04T12:37:00.720Z,22.92
2022-12-04T12:39:38.399Z,21.60
2022-12-04T12:42:12.418Z,18.95
2022-12-04T12:45:04.446Z,18.05
2022-12-04T12:47:40.299Z,17.55
2022-12-04T12:50:22.961Z,23.80
2022-12-04T12:52:58.164Z,22.85
2022-12-04T12:55:36.777Z,21.77
2022-12-04T12:58:24.808Z,20.73
2022-12-04T13:01:17.487Z,19.70
2022-12-04T13:03:49.688Z,16.52
2022-12-04T13:06:21.915Z,16.73
2022-12-04T13:09:05.267Z,16.52
2022-12-04T13:11:32.803Z,16.27
2022-12-04T13:14:02.316Z,15.20
2022-12-04T13:16:35.881Z,16.95
2022-12-04T13:19:13.352Z,16.23
2022-12-04T13:21:56.519Z,17.08
2022-12-04T13:24:23.044Z,16.10
2022-12-04T13:27:02.078Z,16.45
2022-12-04T13:29:58.156Z,14.65
2022-12-04T13:32:55.373Z,15.38
2022-12-04T13:35:27.729Z,15.43
2022-12-04T13:38:32.941Z,14.27
2022-12-04T13:41:06.355Z,14.07
2022-12-04T13:43:45.935Z,14.73
2022-12-04T13:46:36.313Z,14.25
2022-12-04T13:49:31.089Z,14.18
2022-12-04T13:51:59.993Z,13.48
2022-12-04T13:54:35.894Z,12.85
2022-12-04T13:57:14.564Z,13.63
2022-12-04T13:59:41.555Z,13.40
2022-12-04T14:02:28.346Z,14.73
2022-12-04T14:05:01.413Z,13.15
2022-12-04T14:07:32.159Z,13.20
2022-12-04T14:10:02.349Z,13.70
2022-12-04T14:12:33.801Z,14.75
2022-12-04T14:15:06.547Z,14.20
2022-12-04T14:17:36.165Z,13.40
2022-12-04T14:20:21.459Z,13.45
2022-12-04T14:22:47.979Z,14.48
2022-12-04T14:25:14.465Z,12.50
2022-12-04T14:27:41.044Z,13.90
2022-12-04T14:30:37.732Z,14.00
2022-12-04T14:33:19.002Z,14.85
2022-12-04T14:36:25.847Z,13.32
2022-12-04T14:39:11.812Z,12.57
2022-12-04T14:41:38.750Z,13.82
2022-12-04T14:44:05.539Z,13.02
2022-12-04T14:46:43.015Z,14.02
2022-12-04T14:49:37.152Z,12.93
2022-12-04T14:52:19.584Z,14.23
2022-12-04T14:54:49.152Z,11.93
2022-12-04T14:57:49.674Z,11.20
2022-12-04T15:00:22.346Z,12.40
2022-12-04T15:02:52.727Z,13.13
2022-12-04T15:05:27.011Z,11.45
2022-12-04T15:07:59.215Z,12.07
2022-12-04T15:10:29.423Z,12.80
2022-12-04T15:12:56.267Z,11.80
2022-12-04T15:15:28.522Z,12.45
2022-12-04T15:18:03.588Z,11.77
2022-12-04T15:20:38.900Z,12.10
2022-12-04T15:23:06.124Z,10.90
2022-12-04T15:25:43.746Z,10.35
2022-12-04T15:28:18.511Z,10.23
2022-12-04T15:30:46.219Z,10.38
2022-12-04T15:33:25.854Z,11.02
2022-12-04T15:36:05.841Z,9.63
2022-12-04T15:38:33.279Z,9.85
2022-12-04T15:41:00.962Z,10.60
2022-12-04T15:43:42.323Z,11.30
2022-12-04T15:46:14.599Z,10.93
2022-12-04T15:48:46.364Z,12.23
2022-12-04T15:51:15.991Z,15.27
2022-12-04T15:53:45.787Z,19.35
2022-12-04T15:56:22.177Z,14.75
2022-12-04T15:58:56.758Z,10.40
2022-12-04T16:01:23.739Z,11.32
2022-12-04T16:03:53.159Z,10.25
2022-12-04T16:06:19.807Z,9.75
2022-12-04T16:09:08.400Z,11.05
2022-12-04T16:11:37.627Z,11.52
2022-12-04T16:14:09.070Z,10.30
2022-12-04T16:16:37.670Z,12.05
2022-12-04T16:19:20.227Z,13.18
2022-12-04T16:21:46.884Z,11.23
2022-12-04T16:24:13.431Z,11.02
2022-12-04T16:26:40.881Z,11.40
2022-12-04T16:29:07.579Z,12.70
2022-12-04T16:31:34.613Z,12.55
2022-12-04T16:34:01.143Z,11.77
2022-12-04T16:36:27.736Z,12.38
2022-12-04T16:38:54.225Z,13.15
2022-12-04T16:41:20.818Z,13.35
2022-12-04T16:43:54.325Z,13.45
2022-12-04T16:46:23.758Z,14.27
2022-12-04T16:48:50.864Z,14.00
2022-12-04T16:51:21.816Z,13.40
2022-12-04T16:53:50.279Z,12.98
2022-12-04T16:56:16.816Z,12.95
2022-12-04T16:58:43.379Z,12.95
2022-12-04T17:01:35.278Z,11.77
2022-12-04T17:06:28.466Z,10.73
2022-12-04T17:08:54.998Z,10.02
2022-12-04T17:11:21.522Z,9.43
2022-12-04T17:13:48.130Z,9.05
2022-12-04T17:16:15.374Z,12.95
2022-12-04T17:18:43.159Z,9.35
2022-12-04T17:21:11.861Z,22.92
2022-12-04T17:23:38.729Z,18.00
2022-12-04T17:26:08.118Z,14.00
2022-12-04T17:28:35.089Z,11.27
2022-12-04T17:31:01.952Z,13.88
2022-12-04T17:33:28.583Z,12.85
2022-12-04T17:35:55.143Z,13.68
2022-12-04T17:38:21.964Z,13.27
2022-12-04T17:41:02.884Z,11.45
2022-12-04T17:43:31.067Z,9.03
2022-12-04T17:45:58.288Z,8.48
2022-12-04T17:48:25.759Z,8.52
2022-12-04T17:51:04.323Z,10.20
2022-12-04T17:53:30.897Z,11.65
2022-12-04T17:56:02.472Z,12.27
2022-12-04T17:58:30.719Z,11.27
2022-12-04T18:01:21.461Z,11.20
2022-12-04T18:03:59.795Z,11.75
2022-12-04T18:06:31.767Z,11.68
2022-12-04T18:08:58.837Z,12.10
2022-12-04T18:11:29.623Z,10.25
2022-12-04T18:14:11.916Z,7.32
2022-12-04T18:16:47.096Z,13.90
2022-12-04T18:19:14.344Z,13.90
2022-12-04T18:21:41.027Z,9.80
2022-12-04T18:24:07.932Z,10.82
2022-12-04T18:26:40.187Z,9.98
2022-12-04T18:29:08.042Z,9.13
2022-12-04T18:31:35.103Z,10.68
2022-12-04T18:34:01.791Z,10.23
2022-12-04T18:36:30.628Z,10.88
2022-12-04T18:39:01.181Z,11.23
2022-12-04T18:41:28.916Z,11.05
2022-12-04T18:43:56.661Z,10.35
2022-12-04T18:46:23.487Z,10.07
2022-12-04T18:48:53.856Z,10.68
2022-12-04T18:51:21.614Z,10.85
2022-12-04T18:53:49.397Z,10.95
2022-12-04T18:56:16.615Z,11.30
2022-12-04T18:58:43.405Z,11.57
2022-12-04T19:01:12.092Z,13.27
2022-12-04T19:03:38.769Z,12.38
2022-12-04T19:06:06.303Z,12.88
2022-12-04T19:08:36.574Z,13.50
2022-12-04T19:11:14.357Z,11.75
2022-12-04T19:13:41.907Z,12.85
2022-12-04T19:16:16.852Z,13.13
2022-12-04T19:18:43.980Z,13.13
2022-12-04T19:21:11.362Z,14.60
2022-12-04T19:23:37.955Z,15.70
2022-12-04T19:26:04.597Z,13.32
2022-12-04T19:28:31.482Z,14.05
2022-12-04T19:30:58.280Z,14.50
2022-12-04T19:33:25.228Z,15.15
2022-12-04T19:36:03.956Z,19.67
2022-12-04T19:38:31.715Z,17.58
2022-12-04T19:41:11.541Z,15.95
2022-12-04T19:43:43.266Z,14.00
2022-12-04T19:48:38.036Z,16.75
2022-12-04T19:51:11.478Z,15.70
2022-12-04T19:53:41.099Z,14.98
2022-12-04T19:56:29.552Z,15.45
2022-12-04T19:59:01.687Z,14.27
2022-12-04T20:01:29.414Z,14.30
2022-12-04T20:03:56.899Z,15.65
2022-12-04T20:06:28.131Z,15.45
2022-12-04T20:08:57.571Z,16.63
2022-12-04T20:11:25.125Z,16.15
2022-12-04T20:13:52.233Z,17.25
2022-12-04T20:16:18.794Z,19.70
2022-12-04T20:18:45.630Z,17.13
2022-12-04T20:21:13.369Z,16.90
2022-12-04T20:23:41.926Z,17.30
2022-12-04T20:26:11.354Z,17.35
2022-12-04T20:28:38.144Z,16.58
2022-12-04T20:31:32.985Z,17.40
2022-12-04T20:34:01.586Z,17.85
2022-12-04T20:36:30.396Z,18.48
2022-12-04T20:38:58.670Z,15.75
2022-12-04T20:41:29.678Z,17.98
2022-12-04T20:43:59.199Z,15.00
2022-12-04T20:46:32.098Z,17.38
2022-12-04T20:48:59.876Z,18.52
2022-12-04T20:51:38.490Z,18.88
2022-12-04T20:54:05.908Z,19.15
2022-12-04T20:56:34.762Z,20.75
2022-12-04T20:59:07.055Z,19.27
2022-12-04T21:01:34.122Z,20.48
2022-12-04T21:04:01.571Z,20.13
2022-12-04T21:06:35.159Z,21.45
2022-12-04T21:09:04.154Z,20.95
2022-12-04T21:11:40.029Z,20.77
2022-12-04T21:14:10.948Z,20.92
2022-12-04T21:16:37.585Z,21.70
2022-12-04T21:19:06.180Z,22.52
2022-12-04T21:21:33.547Z,20.85
2022-12-04T21:24:00.520Z,21.58
2022-12-04T21:26:27.270Z,21.15
2022-12-04T21:28:53.945Z,21.00
2022-12-04T21:31:20.871Z,21.42
2022-12-04T21:33:47.515Z,20.85
2022-12-04T21:36:14.326Z,20.95
2022-12-04T21:38:40.918Z,21.63
2022-12-04T21:41:09.789Z,21.13
2022-12-04T21:43:37.177Z,21.20
2022-12-04T21:46:09.474Z,22.10
2022-12-04T21:48:36.504Z,21.40
2022-12-04T21:51:16.810Z,20.33
2022-12-04T21:53:53.998Z,21.42
2022-12-04T21:56:22.424Z,20.90
2022-12-04T21:58:49.290Z,20.13
2022-12-04T22:01:18.457Z,19.80
2022-12-04T22:03:45.531Z,19.95
2022-12-04T22:06:12.328Z,18.88
2022-12-04T22:08:41.601Z,18.80
2022-12-04T22:11:10.102Z,18.00
2022-12-04T22:13:37.411Z,19.52
2022-12-04T22:16:06.440Z,17.85
2022-12-04T22:18:33.811Z,18.02
2022-12-04T22:21:08.687Z,17.67
2022-12-04T22:23:35.581Z,18.35
2022-12-04T22:26:13.710Z,18.80
2022-12-04T22:28:41.004Z,18.10
2022-12-04T22:31:11.384Z,19.90
2022-12-04T22:33:39.138Z,19.88
2022-12-04T22:36:12.042Z,17.45
2022-12-04T22:38:58.704Z,20.08
2022-12-04T22:41:26.839Z,18.15
2022-12-04T22:43:53.433Z,17.42
2022-12-04T22:46:20.329Z,20.20
2022-12-04T22:48:46.908Z,18.42
2022-12-04T22:51:19.835Z,18.08
2022-12-04T22:53:49.086Z,18.67
2022-12-04T22:56:18.793Z,17.83
2022-12-04T22:58:45.478Z,18.42
2022-12-04T23:01:18.080Z,19.70
2022-12-04T23:03:45.595Z,17.88
2022-12-04T23:06:13.415Z,18.65
2022-12-04T23:08:41.525Z,17.65
2022-12-04T23:11:14.301Z,17.67
2022-12-04T23:13:41.697Z,20.52
2022-12-04T23:16:10.098Z,18.90
2022-12-04T23:18:37.655Z,19.33
2022-12-04T23:21:08.986Z,18.38
2022-12-04T23:23:40.671Z,19.10
2022-12-04T23:28:36.068Z,18.77
2022-12-04T23:31:03.421Z,18.80
2022-12-04T23:33:30.737Z,18.08
2022-12-04T23:35:59.229Z,18.20
2022-12-04T23:38:27.772Z,19.90
2022-12-04T23:41:22.410Z,17.00
2022-12-04T23:43:50.264Z,18.35
2022-12-04T23:46:21.170Z,18.00
2022-12-04T23:48:48.024Z,18.02
2022-12-04T23:51:17.250Z,17.95
2022-12-04T23:53:44.803Z,18.08
2022-12-04T23:56:18.030Z,18.65
2022-12-04T23:58:46.666Z,18.67
